Time;durP1;ratioP1;P1;durP2;ratioP2;P2;SDS_P1;SDS_P2;PMS_P1;PMS_P2;Temp;Humidity;BMP_temperature;BMP_pressure;BME280_temperature;BME280_humidity;BME280_pressure;Samples;Min_cycle;Max_cycle;Signal;HPM_P1;HPM_P2
2022/08/13 00:00:59;;;;;;;7.22;4.82;;;19.40;99.90;;;;;;4984882;28;20034;-92
2022/08/13 00:03:26;;;;;;;9.20;5.72;;;19.30;99.90;;;;;;5004998;28;20052;-92
2022/08/13 00:05:52;;;;;;;9.05;5.18;;;19.20;99.90;;;;;;4976532;28;20094;-92
2022/08/13 00:08:22;;;;;;;10.63;5.20;;;19.10;99.90;;;;;;4965391;28;20086;-94
2022/08/13 00:10:48;;;;;;;8.40;4.78;;;19.10;99.90;;;;;;4982936;28;20050;-94
2022/08/13 00:13:17;;;;;;;7.68;4.95;;;19.00;99.90;;;;;;4983334;28;20043;-92
2022/08/13 00:15:43;;;;;;;9.18;4.70;;;19.00;99.90;;;;;;4954263;28;20047;-92
2022/08/13 00:18:14;;;;;;;7.75;4.70;;;19.00;99.90;;;;;;4976451;28;20176;-92
2022/08/13 00:20:42;;;;;;;;;;;19.00;99.90;;;;;;4991044;28;20042;-92
2022/08/13 00:23:11;;;;;;;8.65;5.40;;;18.90;99.90;;;;;;4971407;28;19928;-92
2022/08/13 00:25:37;;;;;;;10.70;5.57;;;18.90;99.90;;;;;;4973975;28;20038;-92
2022/08/13 00:28:04;;;;;;;8.25;5.65;;;19.00;99.90;;;;;;4990087;28;20302;-93
2022/08/13 00:30:33;;;;;;;9.57;5.50;;;19.00;99.90;;;;;;5009490;28;20046;-92
2022/08/13 00:33:12;;;;;;;8.32;5.20;;;19.00;99.90;;;;;;5013427;28;20094;-92
2022/08/13 00:35:41;;;;;;;9.10;5.72;;;19.00;99.90;;;;;;5004717;28;20046;-94
2022/08/13 00:38:13;;;;;;;11.45;5.32;;;19.00;99.90;;;;;;4998745;28;20053;-94
2022/08/13 00:40:50;;;;;;;9.63;5.13;;;19.00;99.90;;;;;;5002842;28;20043;-92
2022/08/13 00:43:16;;;;;;;9.38;5.72;;;19.00;99.90;;;;;;5008396;28;20055;-93
2022/08/13 00:45:42;;;;;;;8.68;5.68;;;19.00;99.90;;;;;;5008085;28;20034;-92
2022/08/13 00:50:55;;;;;;;9.45;5.47;;;19.00;99.90;;;;;;4990274;28;20046;-91
2022/08/13 00:53:24;;;;;;;10.38;5.47;;;19.00;99.90;;;;;;4983923;28;20388;-91
2022/08/13 00:55:54;;;;;;;10.30;5.47;;;18.90;99.90;;;;;;4990087;28;20443;-92
2022/08/13 00:58:22;;;;;;;9.77;5.80;;;18.90;99.90;;;;;;4988936;28;20058;-94
2022/08/13 01:00:51;;;;;;;9.07;5.43;;;18.80;99.90;;;;;;4985940;28;20042;-92
2022/08/13 01:03:18;;;;;;;8.32;5.40;;;18.80;99.90;;;;;;5005499;28;20038;-93
2022/08/13 01:05:47;;;;;;;8.52;4.97;;;18.90;99.90;;;;;;5005411;28;20507;-92
2022/08/13 01:08:16;;;;;;;8.93;5.28;;;18.80;99.90;;;;;;4986741;28;20042;-92
2022/08/13 01:10:43;;;;;;;8.82;4.90;;;18.80;99.90;;;;;;4988329;28;20047;-95
2022/08/13 01:13:11;;;;;;;7.57;4.53;;;18.80;99.90;;;;;;4972158;28;20341;-92
2022/08/13 01:15:39;;;;;;;8.98;5.18;;;18.80;99.90;;;;;;5004982;28;20144;-91
2022/08/13 01:18:06;;;;;;;9.10;4.50;;;18.80;99.90;;;;;;4988409;28;20085;-94
2022/08/13 01:20:32;;;;;;;7.55;4.50;;;18.80;99.90;;;;;;4991041;28;20145;-91
2022/08/13 01:22:58;;;;;;;7.60;4.47;;;18.80;99.90;;;;;;4988393;28;20427;-92
2022/08/13 01:25:27;;;;;;;6.43;4.45;;;18.80;99.90;;;;;;4990855;28;20049;-91
2022/08/13 01:27:53;;;;;;;8.77;4.88;;;18.80;99.90;;;;;;4973820;28;20042;-92
2022/08/13 01:30:22;;;;;;;8.82;4.63;;;18.80;99.90;;;;;;4992489;28;20061;-92
2022/08/13 01:32:48;;;;;;;9.57;4.32;;;18.80;99.90;;;;;;4993800;28;20043;-92
2022/08/13 01:35:18;;;;;;;9.35;4.43;;;18.80;99.90;;;;;;5009959;28;20499;-91
2022/08/13 01:37:51;;;;;;;8.80;4.68;;;18.80;99.90;;;;;;4978299;28;20768;-91
2022/08/13 01:40:17;;;;;;;9.40;5.18;;;18.80;99.90;;;;;;4992460;28;20054;-92
2022/08/13 01:42:45;;;;;;;9.57;4.32;;;18.80;99.90;;;;;;4992772;28;20121;-91
2022/08/13 01:45:12;;;;;;;8.52;4.88;;;18.70;99.90;;;;;;4997284;28;20046;-91
2022/08/13 01:50:29;;;;;;;8.80;5.22;;;18.60;99.90;;;;;;5011904;28;20052;-93
2022/08/13 01:53:07;;;;;;;8.30;4.80;;;18.50;99.90;;;;;;4993222;28;20049;-92
2022/08/13 01:55:45;;;;;;;9.90;5.07;;;18.50;99.90;;;;;;4973990;28;20037;-91
2022/08/13 01:58:17;;;;;;;7.90;4.55;;;18.40;99.90;;;;;;4976919;28;20053;-92
2022/08/13 02:00:46;;;;;;;8.05;4.57;;;18.40;99.90;;;;;;4992719;28;20717;-94
2022/08/13 02:03:13;;;;;;;8.00;4.80;;;18.40;99.90;;;;;;4993481;28;20046;-92
2022/08/13 02:05:40;;;;;;;8.73;4.82;;;18.40;99.90;;;;;;4993570;28;20454;-91
2022/08/13 02:08:07;;;;;;;8.40;5.10;;;18.40;99.90;;;;;;4998098;28;20042;-93
2022/08/13 02:10:37;;;;;;;8.98;4.68;;;18.30;99.90;;;;;;5002418;28;20050;-92
2022/08/13 02:13:06;;;;;;;7.60;4.90;;;18.30;99.90;;;;;;4998491;28;20049;-91
2022/08/13 02:15:31;;;;;;;9.13;5.22;;;18.30;99.90;;;;;;5002626;28;20306;-91
2022/08/13 02:18:01;;;;;;;7.82;5.22;;;18.30;99.90;;;;;;5005487;28;20102;-91
2022/08/13 02:20:28;;;;;;;8.70;4.57;;;18.30;99.90;;;;;;4963400;28;20045;-89
2022/08/13 02:22:54;;;;;;;8.98;4.72;;;18.20;99.90;;;;;;4973267;28;20053;-92
2022/08/13 02:25:22;;;;;;;7.85;4.72;;;18.20;99.90;;;;;;4994021;28;20057;-92
2022/08/13 02:27:48;;;;;;;8.38;4.70;;;18.20;99.90;;;;;;4980616;28;20042;-91
2022/08/13 02:30:16;;;;;;;10.25;4.72;;;18.20;99.90;;;;;;4975738;28;20047;-92
2022/08/13 02:32:43;;;;;;;9.55;4.72;;;18.20;99.90;;;;;;4990243;28;20502;-92
2022/08/13 02:35:08;;;;;;;9.77;4.72;;;18.20;99.90;;;;;;5018535;28;20128;-92
2022/08/13 02:37:35;;;;;;;10.38;5.18;;;18.20;99.90;;;;;;4975073;28;20077;-91
2022/08/13 02:40:03;;;;;;;7.85;4.40;;;18.10;99.90;;;;;;5015615;28;20038;-91
2022/08/13 02:42:32;;;;;;;8.93;4.78;;;18.10;99.90;;;;;;4992633;28;20125;-95
2022/08/13 02:44:58;;;;;;;11.27;4.70;;;18.10;99.90;;;;;;4980992;28;20042;-94
2022/08/13 02:47:25;;;;;;;9.55;4.88;;;18.10;99.90;;;;;;5010499;28;20037;-93
2022/08/13 02:49:51;;;;;;;7.85;4.85;;;18.00;99.90;;;;;;4999700;28;20046;-94
2022/08/13 02:52:20;;;;;;;10.50;5.15;;;18.00;99.90;;;;;;5001612;28;20116;-92
2022/08/13 02:54:48;;;;;;;9.35;4.90;;;17.90;99.90;;;;;;4982759;28;20046;-94
2022/08/13 02:57:14;;;;;;;9.07;4.65;;;17.90;99.90;;;;;;4967462;28;20054;-95
2022/08/13 02:59:41;;;;;;;7.30;4.80;;;17.80;99.90;;;;;;4994690;28;20077;-94
2022/08/13 03:02:08;;;;;;;7.75;4.35;;;17.80;99.90;;;;;;5012674;28;20169;-94
2022/08/13 03:04:34;;;;;;;7.00;4.88;;;17.70;99.90;;;;;;4983105;28;20046;-95
2022/08/13 03:07:01;;;;;;;10.13;5.38;;;17.60;99.90;;;;;;5006356;28;20039;-94
2022/08/13 03:09:27;;;;;;;9.50;4.68;;;17.60;99.90;;;;;;4997953;28;20077;-95
2022/08/13 03:11:55;;;;;;;9.15;5.38;;;17.50;99.90;;;;;;5000616;28;20077;-94
2022/08/13 03:14:22;;;;;;;8.68;5.10;;;17.50;99.90;;;;;;4981553;28;20038;-95
2022/08/13 03:16:48;;;;;;;7.13;4.60;;;17.40;99.90;;;;;;4997737;28;20062;-94
2022/08/13 03:19:13;;;;;;;10.43;4.97;;;17.40;99.90;;;;;;4997701;28;20038;-93
2022/08/13 03:21:42;;;;;;;9.68;5.55;;;17.30;99.90;;;;;;4995745;28;20094;-95
2022/08/13 03:24:14;;;;;;;8.70;5.32;;;17.30;99.90;;;;;;4995572;28;20482;-94
2022/08/13 03:26:40;;;;;;;9.48;5.25;;;17.20;99.90;;;;;;5006399;28;20031;-95
2022/08/13 03:29:06;;;;;;;8.57;4.88;;;17.20;99.90;;;;;;4996587;28;20046;-95
2022/08/13 03:31:34;;;;;;;11.50;5.57;;;17.10;99.90;;;;;;4998922;28;20073;-95
2022/08/13 03:34:01;;;;;;;12.23;5.45;;;17.10;99.90;;;;;;5000032;28;20046;-95
2022/08/13 03:36:29;;;;;;;12.80;5.75;;;17.10;99.90;;;;;;4994243;28;20035;-95
2022/08/13 03:38:56;;;;;;;9.73;5.72;;;17.10;99.90;;;;;;4987581;28;20053;-94
2022/08/13 03:41:22;;;;;;;9.02;5.50;;;17.00;99.90;;;;;;4995096;28;20081;-93
2022/08/13 03:43:48;;;;;;;9.10;5.90;;;17.00;99.90;;;;;;4992631;28;20046;-95
2022/08/13 03:46:17;;;;;;;10.13;5.43;;;17.00;99.90;;;;;;4994427;28;20566;-93
2022/08/13 03:48:43;;;;;;;9.57;5.40;;;17.00;99.90;;;;;;5008426;28;20038;-95
2022/08/13 03:51:09;;;;;;;9.15;5.65;;;17.00;99.90;;;;;;4994328;28;20157;-93
2022/08/13 03:53:35;;;;;;;8.88;5.68;;;17.00;99.90;;;;;;4989235;28;20031;-95
2022/08/13 03:56:03;;;;;;;9.13;5.80;;;17.00;99.90;;;;;;4977599;28;20050;-94
2022/08/13 03:58:30;;;;;;;8.90;5.57;;;16.90;99.90;;;;;;4976907;28;20046;-94
2022/08/13 04:00:56;;;;;;;8.77;5.38;;;16.90;99.90;;;;;;4993092;28;20047;-95
2022/08/13 04:03:30;;;;;;;9.30;5.75;;;16.90;99.90;;;;;;5020120;28;20046;-94
2022/08/13 04:05:58;;;;;;;7.78;5.35;;;16.80;99.90;;;;;;4993656;28;20050;-93
2022/08/13 04:08:34;;;;;;;9.88;5.82;;;16.80;99.90;;;;;;4992319;28;20050;-95
2022/08/13 04:11:03;;;;;;;9.50;5.32;;;16.80;99.90;;;;;;4977938;28;20109;-95
2022/08/13 04:13:36;;;;;;;9.60;5.63;;;16.80;99.90;;;;;;4998680;28;20038;-94
2022/08/13 04:16:08;;;;;;;9.55;5.82;;;16.80;99.90;;;;;;4979120;28;20583;-94
2022/08/13 04:18:37;;;;;;;14.88;5.75;;;16.80;99.90;;;;;;4970031;28;20081;-95
2022/08/13 04:21:09;;;;;;;12.73;5.68;;;16.80;99.90;;;;;;4973003;28;20082;-93
2022/08/13 04:23:39;;;;;;;11.20;5.70;;;16.80;99.90;;;;;;4987299;28;20047;-96
2022/08/13 04:26:05;;;;;;;10.20;5.72;;;16.80;99.90;;;;;;5011375;28;20101;-94
2022/08/13 04:28:31;;;;;;;10.23;5.78;;;16.80;99.90;;;;;;4996771;28;20055;-94
2022/08/13 04:30:58;;;;;;;9.88;5.38;;;16.80;99.90;;;;;;4983349;28;20121;-94
2022/08/13 04:33:25;;;;;;;9.23;5.63;;;16.80;99.90;;;;;;5011100;28;20088;-93
2022/08/13 04:35:51;;;;;;;9.43;5.63;;;16.90;99.90;;;;;;5014898;28;20101;-94
2022/08/13 04:38:17;;;;;;;12.60;5.47;;;16.90;99.90;;;;;;5006434;28;20031;-94
2022/08/13 04:40:44;;;;;;;12.13;5.78;;;16.90;99.90;;;;;;5001558;28;20038;-95
2022/08/13 04:43:13;;;;;;;12.00;5.60;;;17.00;99.90;;;;;;4996906;28;20046;-93
2022/08/13 04:45:41;;;;;;;11.80;5.70;;;16.90;99.90;;;;;;5007157;28;20039;-94
2022/08/13 04:48:12;;;;;;;11.95;6.03;;;17.00;99.90;;;;;;5020053;28;20081;-94
2022/08/13 04:50:39;;;;;;;10.10;5.47;;;17.00;99.90;;;;;;4984906;28;20102;-94
2022/08/13 04:53:08;;;;;;;9.63;6.03;;;17.10;99.90;;;;;;4994656;28;20055;-94
2022/08/13 04:55:36;;;;;;;10.75;5.90;;;17.00;99.90;;;;;;4993303;28;20042;-93
2022/08/13 04:58:01;;;;;;;7.85;5.20;;;17.10;99.90;;;;;;4998520;28;20078;-93
2022/08/13 05:00:32;;;;;;;9.85;5.35;;;17.10;99.90;;;;;;4996764;28;20049;-92
2022/08/13 05:03:10;;;;;;;7.82;5.40;;;17.20;99.90;;;;;;4985823;28;20050;-94
2022/08/13 05:05:36;;;;;;;9.27;5.68;;;17.20;99.90;;;;;;4988037;28;20046;-94
2022/08/13 05:08:04;;;;;;;9.75;5.32;;;17.40;99.90;;;;;;5003742;28;20076;-94
2022/08/13 05:10:33;;;;;;;9.97;5.30;;;17.50;99.90;;;;;;4986482;28;20403;-94
2022/08/13 05:13:02;;;;;;;8.57;5.30;;;17.50;99.90;;;;;;5008335;28;20096;-93
2022/08/13 05:15:29;;;;;;;8.10;5.10;;;17.70;99.90;;;;;;5004116;28;20037;-93
2022/08/13 05:17:54;;;;;;;9.80;5.25;;;17.70;99.90;;;;;;5000678;28;20054;-93
2022/08/13 05:20:21;;;;;;;9.18;5.40;;;17.80;99.90;;;;;;5019331;28;20121;-93
2022/08/13 05:22:46;;;;;;;10.10;5.00;;;17.90;99.90;;;;;;5000595;28;20506;-94
2022/08/13 05:25:14;;;;;;;12.32;5.90;;;17.90;99.90;;;;;;5010919;28;20050;-93
2022/08/13 05:27:41;;;;;;;11.63;5.60;;;18.00;99.90;;;;;;4993563;28;20152;-94
2022/08/13 05:30:08;;;;;;;12.82;5.70;;;18.10;99.90;;;;;;4961057;28;20144;-93
2022/08/13 05:32:40;;;;;;;10.93;5.20;;;18.10;99.90;;;;;;4971988;28;20046;-94
2022/08/13 05:35:08;;;;;;;8.73;4.78;;;18.10;99.90;;;;;;5010114;28;20046;-91
2022/08/13 05:37:33;;;;;;;10.77;5.35;;;18.30;99.90;;;;;;4992898;28;20038;-90
2022/08/13 05:39:59;;;;;;;12.20;5.20;;;18.20;99.90;;;;;;4978826;28;20098;-95
2022/08/13 05:42:25;;;;;;;9.18;4.57;;;18.40;99.90;;;;;;5005204;28;20431;-95
2022/08/13 05:44:50;;;;;;;8.20;4.43;;;18.50;99.90;;;;;;4993207;28;20045;-94
2022/08/13 05:47:17;;;;;;;8.65;4.82;;;18.60;99.90;;;;;;4991545;28;20605;-94
2022/08/13 05:49:42;;;;;;;10.57;4.50;;;18.60;99.90;;;;;;4990744;28;20049;-94
2022/08/13 05:52:11;;;;;;;8.45;4.20;;;18.70;99.90;;;;;;4973564;28;20399;-95
2022/08/13 05:54:37;;;;;;;8.40;4.10;;;18.80;99.90;;;;;;5003525;28;20081;-92
2022/08/13 05:57:03;;;;;;;8.43;4.43;;;18.90;99.90;;;;;;4999775;28;20053;-94
2022/08/13 06:05:02;;;;;;;7.70;4.07;;;19.30;99.90;;;;;;4983374;28;20062;-94
2022/08/13 06:07:28;;;;;;;7.57;4.10;;;19.40;99.90;;;;;;5273450;23;20054;-93
2022/08/13 06:09:53;;;;;;;7.07;4.18;;;19.50;99.90;;;;;;5001077;28;20054;-95
2022/08/13 06:12:21;;;;;;;6.60;3.88;;;19.60;99.90;;;;;;4992405;28;20511;-96
2022/08/13 06:14:50;;;;;;;6.60;3.50;;;19.70;99.90;;;;;;4981616;28;20124;-91
2022/08/13 06:17:16;;;;;;;7.78;3.58;;;19.70;99.90;;;;;;4997223;28;20050;-96
2022/08/13 06:19:43;;;;;;;6.93;3.33;;;19.90;99.90;;;;;;4977659;28;20061;-95
2022/08/13 06:22:11;;;;;;;6.93;3.40;;;19.90;99.90;;;;;;4993626;28;20042;-95
2022/08/13 06:24:37;;;;;;;6.35;3.10;;;20.00;99.90;;;;;;4993108;28;20073;-95
2022/08/13 06:27:05;;;;;;;7.43;3.20;;;20.00;99.90;;;;;;5004642;28;20052;-95
2022/08/13 06:29:35;;;;;;;7.05;3.30;;;20.20;99.90;;;;;;4988253;28;20046;-95
2022/08/13 06:32:03;;;;;;;8.35;3.15;;;20.30;99.90;;;;;;5011336;28;20077;-92
2022/08/13 06:34:31;;;;;;;8.80;3.22;;;20.40;99.90;;;;;;4982124;28;20038;-96
2022/08/13 06:36:58;;;;;;;7.35;3.20;;;20.50;99.90;;;;;;4998736;28;20034;-96
2022/08/13 06:39:26;;;;;;;7.65;3.42;;;20.60;99.90;;;;;;5015986;28;20104;-95
2022/08/13 06:41:54;;;;;;;7.80;3.20;;;20.60;99.90;;;;;;4991755;28;20055;-95
2022/08/13 06:44:20;;;;;;;5.97;2.95;;;20.80;99.90;;;;;;5008898;28;20035;-95
2022/08/13 06:46:47;;;;;;;5.72;2.97;;;20.80;99.90;;;;;;4995600;28;20074;-94
2022/08/13 06:49:12;;;;;;;8.05;3.03;;;20.90;99.90;;;;;;4991692;28;20046;-95
2022/08/13 06:51:38;;;;;;;7.32;2.67;;;20.90;99.90;;;;;;4983611;28;20144;-94
2022/08/13 06:54:08;;;;;;;7.18;2.92;;;21.10;99.90;;;;;;4991653;28;20081;-91
2022/08/13 06:56:35;;;;;;;8.05;3.08;;;21.10;99.90;;;;;;4977499;28;20061;-92
2022/08/13 06:59:03;;;;;;;5.63;2.60;;;21.10;99.90;;;;;;4978598;28;20034;-92
2022/08/13 07:01:29;;;;;;;5.97;2.55;;;21.40;99.90;;;;;;5004870;28;20077;-94
2022/08/13 07:03:55;;;;;;;5.88;3.15;;;21.40;99.90;;;;;;5005721;28;20088;-93
2022/08/13 07:06:28;;;;;;;5.07;2.60;;;21.60;99.90;;;;;;4995909;28;20042;-93
2022/08/13 07:09:02;;;;;;;7.35;2.60;;;21.70;99.90;;;;;;4996573;28;20058;-94
2022/08/13 07:11:30;;;;;;;6.25;2.70;;;21.70;99.90;;;;;;4996542;28;20054;-93
2022/08/13 07:13:59;;;;;;;6.38;2.65;;;21.80;99.90;;;;;;4994144;28;20054;-94
2022/08/13 07:16:33;;;;;;;6.20;2.60;;;22.00;99.90;;;;;;5000558;28;20046;-96
2022/08/13 07:19:00;;;;;;;4.82;2.60;;;22.10;99.90;;;;;;4988393;28;20058;-96
2022/08/13 07:21:28;;;;;;;5.85;2.67;;;22.20;99.90;;;;;;4976515;28;20086;-95
2022/08/13 07:23:55;;;;;;;8.48;2.45;;;22.40;99.90;;;;;;5008393;28;20058;-96
2022/08/13 07:26:24;;;;;;;6.72;2.50;;;22.50;99.90;;;;;;5011618;28;20105;-92
2022/08/13 07:28:51;;;;;;;6.03;2.45;;;22.60;99.90;;;;;;4973025;28;20035;-94
2022/08/13 07:31:22;;;;;;;6.57;2.50;;;22.80;99.90;;;;;;4993985;28;20092;-94
2022/08/13 07:33:51;;;;;;;5.63;2.20;;;22.80;99.90;;;;;;4992428;28;20046;-95
2022/08/13 07:36:19;;;;;;;6.07;2.17;;;22.80;99.90;;;;;;4976762;28;20034;-94
2022/08/13 07:38:46;;;;;;;6.57;2.38;;;22.90;99.90;;;;;;4993334;28;20066;-92
2022/08/13 07:41:12;;;;;;;5.13;2.30;;;23.00;99.90;;;;;;4993247;28;20104;-94
2022/08/13 07:43:43;;;;;;;5.40;2.40;;;23.10;99.90;;;;;;4976881;28;20088;-94
2022/08/13 07:46:11;;;;;;;5.70;2.20;;;23.30;99.90;;;;;;4982617;28;20072;-94
2022/08/13 07:48:40;;;;;;;6.78;2.47;;;23.40;99.90;;;;;;4969933;28;20107;-91
2022/08/13 07:51:19;;;;;;;5.97;2.30;;;23.50;99.90;;;;;;4993381;28;20049;-93
2022/08/13 07:53:54;;;;;;;4.22;2.53;;;23.60;99.90;;;;;;4987437;28;20284;-94
2022/08/13 07:56:31;;;;;;;4.45;2.30;;;23.70;99.90;;;;;;4992079;28;20513;-91
2022/08/13 07:59:01;;;;;;;5.22;2.47;;;23.80;99.90;;;;;;4986495;28;20046;-93
2022/08/13 08:01:27;;;;;;;5.50;2.30;;;23.90;99.90;;;;;;4980381;28;20431;-90
2022/08/13 08:03:56;;;;;;;4.72;2.35;;;24.00;99.90;;;;;;4986650;28;20038;-93
2022/08/13 08:06:22;;;;;;;4.25;2.10;;;24.20;99.90;;;;;;4988338;28;20406;-93
2022/08/13 08:08:53;;;;;;;6.85;2.00;;;24.10;99.90;;;;;;4988063;28;20163;-92
2022/08/13 08:14:05;;;;;;;7.13;2.03;;;24.50;99.90;;;;;;4984852;28;20507;-93
2022/08/13 08:16:32;;;;;;;6.30;2.30;;;24.40;99.90;;;;;;4975764;28;20054;-93
2022/08/13 08:18:59;;;;;;;6.50;2.30;;;24.50;99.90;;;;;;4975122;28;20073;-90
2022/08/13 08:21:26;;;;;;;6.55;2.33;;;24.60;99.70;;;;;;4990779;28;20085;-90
2022/08/13 08:24:01;;;;;;;4.18;2.20;;;24.70;99.90;;;;;;4982983;28;20129;-92
2022/08/13 08:26:29;;;;;;;5.43;2.05;;;24.70;99.70;;;;;;4992154;28;20042;-89
2022/08/13 08:28:56;;;;;;;4.00;2.13;;;24.80;99.00;;;;;;4990653;28;20189;-92
2022/08/13 08:31:24;;;;;;;6.38;2.20;;;24.90;98.50;;;;;;4985255;28;20633;-87
2022/08/13 08:33:51;;;;;;;6.55;2.13;;;25.10;97.80;;;;;;4994184;28;20050;-91
2022/08/13 08:36:17;;;;;;;5.97;2.10;;;25.20;96.60;;;;;;4991555;28;20038;-91
2022/08/13 08:44:25;;;;;;;4.97;1.90;;;25.50;95.70;;;;;;4994195;28;20046;-91
2022/08/13 08:46:56;;;;;;;4.50;2.10;;;25.60;96.00;;;;;;4999359;28;20050;-91
2022/08/13 08:49:24;;;;;;;5.60;2.08;;;25.60;96.20;;;;;;4974110;28;20038;-89
2022/08/13 08:51:51;;;;;;;4.45;2.13;;;25.70;95.10;;;;;;4988175;28;20046;-91
2022/08/13 08:54:19;;;;;;;4.68;2.20;;;25.80;93.90;;;;;;4975741;28;20129;-91
2022/08/13 08:56:46;;;;;;;3.88;2.03;;;25.90;93.80;;;;;;4987398;28;20053;-88
2022/08/13 08:59:13;;;;;;;3.55;1.85;;;25.90;93.10;;;;;;4997035;28;20045;-92
2022/08/13 09:01:44;;;;;;;3.90;2.08;;;26.00;92.50;;;;;;4991040;28;20443;-90
2022/08/13 09:04:11;;;;;;;4.43;1.95;;;26.10;92.20;;;;;;4975139;28;20054;-91
2022/08/13 09:06:38;;;;;;;6.28;2.30;;;26.10;92.30;;;;;;4990327;28;20046;-93
2022/08/13 09:09:06;;;;;;;5.18;2.10;;;26.20;90.90;;;;;;4985350;28;20065;-88
2022/08/13 09:11:34;;;;;;;4.68;1.90;;;26.30;90.00;;;;;;4973112;28;20054;-87
2022/08/13 09:14:05;;;;;;;5.13;2.00;;;26.40;90.00;;;;;;4972517;28;20422;-88
2022/08/13 09:16:31;;;;;;;;;;;26.40;90.20;;;;;;4975265;28;20055;-87
2022/08/13 09:18:57;;;;;;;4.75;1.90;;;26.40;90.70;;;;;;4972069;28;20295;-88
2022/08/13 09:21:25;;;;;;;3.90;1.88;;;26.40;90.00;;;;;;4980890;28;20043;-88
2022/08/13 09:23:52;;;;;;;5.43;2.22;;;26.50;88.70;;;;;;4974295;28;20049;-86
2022/08/13 09:26:20;;;;;;;5.95;1.88;;;26.50;87.50;;;;;;4974900;28;20049;-87
2022/08/13 09:28:46;;;;;;;4.75;1.80;;;26.50;85.30;;;;;;4989123;28;20061;-87
2022/08/13 09:31:12;;;;;;;5.80;2.00;;;26.60;85.40;;;;;;4974995;28;20141;-87
2022/08/13 09:33:39;;;;;;;3.50;1.90;;;26.70;83.40;;;;;;4993309;28;20042;-86
2022/08/13 09:36:10;;;;;;;5.85;2.15;;;26.70;81.50;;;;;;4990304;28;20368;-84
2022/08/13 09:38:37;;;;;;;6.15;2.30;;;26.80;80.50;;;;;;4990794;28;20046;-85
2022/08/13 09:41:27;;;;;;;4.22;2.05;;;26.90;79.80;;;;;;4990831;28;20434;-88
2022/08/13 09:43:55;;;;;;;4.90;2.10;;;26.90;82.30;;;;;;4991954;28;20065;-83
2022/08/13 09:46:23;;;;;;;6.18;2.17;;;26.90;79.50;;;;;;4990003;28;20050;-84
2022/08/13 09:48:51;;;;;;;5.10;2.42;;;27.00;76.10;;;;;;4971636;28;20057;-87
2022/08/13 09:51:17;;;;;;;5.20;2.10;;;27.10;76.70;;;;;;4974806;28;20069;-87
2022/08/13 09:53:46;;;;;;;4.88;2.10;;;27.10;76.80;;;;;;4974303;28;20105;-86
2022/08/13 09:56:17;;;;;;;5.15;1.92;;;27.10;75.70;;;;;;4992574;28;20057;-91
2022/08/13 09:58:50;;;;;;;4.05;2.00;;;27.20;75.70;;;;;;4978828;28;20043;-89
2022/08/13 10:01:20;;;;;;;4.90;2.08;;;27.20;74.00;;;;;;4983915;28;20467;-87
2022/08/13 10:03:48;;;;;;;26.33;4.18;;;27.30;73.20;;;;;;5017093;28;20042;-90
2022/08/13 10:06:14;;;;;;;6.38;2.20;;;27.30;72.50;;;;;;5003422;28;20125;-91
2022/08/13 10:08:40;;;;;;;4.85;1.95;;;27.30;72.30;;;;;;4986647;28;20047;-90
2022/08/13 10:11:05;;;;;;;4.00;2.10;;;27.30;72.80;;;;;;4993703;28;20054;-89
2022/08/13 10:13:32;;;;;;;7.93;2.13;;;27.30;72.90;;;;;;4981059;28;20090;-89
2022/08/13 10:15:59;;;;;;;4.05;1.98;;;27.30;71.10;;;;;;4986138;28;20042;-89
2022/08/13 10:18:27;;;;;;;5.22;2.08;;;27.30;71.80;;;;;;4977963;28;20108;-87
2022/08/13 10:20:53;;;;;;;5.47;2.20;;;27.30;70.60;;;;;;4990605;28;20105;-88
2022/08/13 10:23:18;;;;;;;5.93;1.90;;;27.40;71.20;;;;;;4977391;28;20050;-90
2022/08/13 10:25:46;;;;;;;4.20;2.03;;;27.40;69.80;;;;;;4978704;28;20038;-88
2022/08/13 10:28:24;;;;;;;6.07;2.10;;;27.50;68.10;;;;;;4981340;28;20042;-87
2022/08/13 10:30:50;;;;;;;3.88;2.10;;;27.60;67.90;;;;;;4988495;28;20053;-90
2022/08/13 10:33:16;;;;;;;5.18;1.90;;;27.60;67.40;;;;;;4999211;28;20474;-92
2022/08/13 10:35:44;;;;;;;3.90;2.08;;;27.60;66.10;;;;;;4990042;28;20158;-92
2022/08/13 10:38:14;;;;;;;3.95;2.10;;;27.60;65.50;;;;;;5012935;28;20137;-91
2022/08/13 10:40:40;;;;;;;4.65;2.22;;;27.70;66.10;;;;;;4993154;28;20120;-89
2022/08/13 10:43:06;;;;;;;3.47;1.83;;;27.70;66.20;;;;;;4990550;28;20066;-89
2022/08/13 10:45:32;;;;;;;5.90;2.47;;;27.70;66.50;;;;;;4995469;28;20553;-89
2022/08/13 10:47:58;;;;;;;3.03;1.92;;;27.70;65.60;;;;;;5007595;28;20054;-90
2022/08/13 10:50:31;;;;;;;3.20;1.98;;;27.70;65.40;;;;;;4993300;28;20122;-91
2022/08/13 10:52:58;;;;;;;5.18;2.20;;;27.80;65.50;;;;;;4980148;28;20043;-90
2022/08/13 10:55:25;;;;;;;4.75;2.08;;;27.80;65.30;;;;;;4986626;28;20431;-91
2022/08/13 10:57:51;;;;;;;3.33;1.98;;;27.90;66.10;;;;;;4967459;28;20471;-89
2022/08/13 11:00:17;;;;;;;4.32;2.00;;;27.90;65.40;;;;;;4991814;28;20455;-91
2022/08/13 11:02:49;;;;;;;4.55;2.10;;;27.90;64.90;;;;;;4992358;28;20046;-90
2022/08/13 11:05:16;;;;;;;3.95;1.85;;;27.90;64.30;;;;;;4991035;28;20126;-90
2022/08/13 11:07:45;;;;;;;4.95;2.35;;;27.90;63.60;;;;;;4972926;28;20061;-89
2022/08/13 11:10:11;;;;;;;4.72;2.10;;;28.00;63.50;;;;;;4987019;28;20096;-93
2022/08/13 11:12:37;;;;;;;4.45;2.25;;;28.10;63.70;;;;;;4974725;28;20046;-91
2022/08/13 11:15:07;;;;;;;5.35;2.05;;;28.10;63.30;;;;;;4995146;28;20049;-90
2022/08/13 11:17:33;;;;;;;4.97;2.10;;;28.10;62.70;;;;;;4994437;28;20081;-93
2022/08/13 11:20:04;;;;;;;5.03;2.10;;;28.10;63.30;;;;;;5002977;28;20043;-91
2022/08/13 11:22:29;;;;;;;4.93;2.22;;;28.10;63.50;;;;;;4990683;28;20042;-90
2022/08/13 11:24:56;;;;;;;4.25;1.90;;;28.10;62.90;;;;;;4977423;28;20467;-91
2022/08/13 11:27:22;;;;;;;4.05;2.00;;;28.20;62.60;;;;;;4995663;28;20046;-92
2022/08/13 11:29:48;;;;;;;3.95;2.05;;;28.20;62.00;;;;;;4989964;28;20388;-90
2022/08/13 11:32:13;;;;;;;4.03;1.98;;;28.30;61.10;;;;;;4992081;28;20045;-92
2022/08/13 11:34:39;;;;;;;4.80;1.90;;;28.30;61.20;;;;;;4992453;28;20042;-89
2022/08/13 11:37:04;;;;;;;4.72;1.90;;;28.30;62.00;;;;;;4989133;28;20415;-90
2022/08/13 11:39:30;;;;;;;3.92;2.00;;;28.30;62.40;;;;;;4973029;28;20039;-91
2022/08/13 11:41:55;;;;;;;4.97;2.13;;;28.40;61.20;;;;;;4988266;28;20045;-91
2022/08/13 11:44:21;;;;;;;6.65;2.03;;;28.50;59.90;;;;;;4990575;28;20124;-91
2022/08/13 11:46:47;;;;;;;4.78;2.00;;;28.60;58.90;;;;;;4987241;28;20046;-90
2022/08/13 11:49:12;;;;;;;4.82;2.00;;;28.70;58.90;;;;;;4989731;28;20042;-91
2022/08/13 11:51:38;;;;;;;4.93;1.90;;;28.70;58.80;;;;;;4991829;28;20045;-93
2022/08/13 11:54:04;;;;;;;4.10;2.10;;;28.70;58.90;;;;;;4973876;28;20097;-90
2022/08/13 11:56:29;;;;;;;5.50;2.40;;;28.70;59.60;;;;;;4954303;28;20492;-88
2022/08/13 11:58:55;;;;;;;4.07;2.20;;;28.70;59.10;;;;;;4969631;28;20055;-92
2022/08/13 12:01:22;;;;;;;4.00;2.13;;;28.80;59.50;;;;;;4970886;28;20094;-91
2022/08/13 12:03:48;;;;;;;5.07;2.28;;;28.80;59.80;;;;;;4978586;28;20081;-89
2022/08/13 12:06:14;;;;;;;4.47;2.20;;;28.80;58.90;;;;;;4974459;28;20077;-89
2022/08/13 12:08:40;;;;;;;5.88;2.72;;;28.80;59.50;;;;;;4989342;28;20054;-91
2022/08/13 12:11:05;;;;;;;3.60;2.30;;;28.80;58.60;;;;;;4977830;28;20463;-93
2022/08/13 12:13:31;;;;;;;4.45;2.30;;;28.70;58.90;;;;;;5016066;28;20046;-93
2022/08/13 12:15:57;;;;;;;4.68;2.15;;;28.70;59.30;;;;;;5000361;28;20081;-90
2022/08/13 12:18:22;;;;;;;4.70;2.20;;;28.60;60.10;;;;;;5008485;28;20546;-92
2022/08/13 12:20:48;;;;;;;4.85;2.15;;;28.50;60.30;;;;;;4990291;28;20525;-90
2022/08/13 12:23:14;;;;;;;4.47;2.30;;;28.40;60.90;;;;;;4989132;28;20480;-90
2022/08/13 12:25:40;;;;;;;3.42;2.20;;;28.50;60.70;;;;;;4990598;28;20034;-91
2022/08/13 12:28:14;;;;;;;3.30;2.00;;;28.50;60.70;;;;;;4990272;28;20096;-91
2022/08/13 12:30:40;;;;;;;5.70;2.17;;;28.50;61.20;;;;;;4985028;28;20142;-91
2022/08/13 12:33:06;;;;;;;4.90;2.20;;;28.50;61.20;;;;;;4983125;28;20189;-92
2022/08/13 12:35:33;;;;;;;4.00;2.10;;;28.50;60.20;;;;;;4974743;28;20133;-91
2022/08/13 12:37:59;;;;;;;5.53;2.10;;;28.60;59.20;;;;;;4995462;28;20043;-89
2022/08/13 12:40:25;;;;;;;5.55;1.90;;;28.70;59.30;;;;;;5001524;28;20042;-89
2022/08/13 12:42:50;;;;;;;4.80;2.00;;;28.70;58.80;;;;;;5008073;28;20042;-93
2022/08/13 12:45:16;;;;;;;3.03;2.00;;;28.90;59.00;;;;;;5001493;28;20168;-92
2022/08/13 12:47:46;;;;;;;5.10;2.20;;;28.80;58.80;;;;;;5000791;28;20072;-92
2022/08/13 12:50:12;;;;;;;3.95;2.13;;;29.00;58.70;;;;;;4991991;28;20046;-91
2022/08/13 12:52:38;;;;;;;4.57;2.30;;;29.00;58.50;;;;;;5002012;28;20042;-91
2022/08/13 12:55:07;;;;;;;6.13;2.30;;;29.10;58.50;;;;;;4989647;28;20459;-91
2022/08/13 12:57:33;;;;;;;3.03;2.05;;;29.20;58.00;;;;;;4985723;28;20129;-90
2022/08/13 12:59:58;;;;;;;4.25;2.10;;;29.20;57.20;;;;;;4989315;28;20174;-92
2022/08/13 13:02:25;;;;;;;3.72;2.08;;;29.20;57.50;;;;;;4973830;28;20491;-91
2022/08/13 13:04:50;;;;;;;3.97;2.00;;;29.30;58.20;;;;;;4977220;28;20437;-92
2022/08/13 13:07:16;;;;;;;4.68;2.33;;;29.20;57.30;;;;;;4969716;28;20142;-88